Ana Sayfa
METAR-TAF:

METAR-TAF

Havaalanları :

Kuveyt, Kuveyt

Enlem: 29-13N, Boylam: 047-59E, yükseklik: 55 m

Güncel hava durumu gözlemi

Rapor saat 08:00 UTC de 59 dakika önce yapıldı.
Rüzgar güneydoğudan 19 kt
Sıcaklık 26°C
Nem 51%
Basınç 1007 hPa
Görüş mesafesi: 6000 m
(Hafif) , yaygın toz

METAR: OKBK 240800Z 14019KT 6000 -BLDU NSC 26/15 Q1007 NOSIG

Saat: 11:59 (08:59 UTC)

Tahmin

Rapor saat 04:45 UTC de 4 saat ve 14 dakika önce yapıldı.
Ayın 24'si saat 06 UTC'den ayın 25'si saat 12 UTC'ye kadar geçerli Tahmin
Rüzgar güney/güneydoğudan 12 kt ve 22 kt'a kadar ani rüzgarlar
Görüş mesafesi: 6000 m
4000 ft yükseklikte parçalı bulutlu
8000 ft yükseklikte parçalı çok bulutlu
Geçici
ayın 24'si saat 06 UTC'den ayın 24'si saat 18 UTC'ye kadar
Görüş mesafesi: 3000 m
3000 ft yükseklikte az bulutlu, Kümülonimbus.

TAF: OKBK 240445Z 2406/2512 15012G22KT 6000 SCT040 BKN080 TEMPO 2406/2418 3000 TSRA/BLDU FEW030CB

4.000'den fazla havaalanı için hava durumu gözlemleri ve tahminleri (METAR ve TAF raporları).

Kullanılabilir istasyonlar harita üzerinde sarı ve kırmızı noktalarla gösterilir.

İstasyonun adını görmek için fareyi noktanın üzerinde gezdirin.

Sonrasında hava gözlem ve tahminlerini görmek için tıklayın.

Haritayı değiştirmek için: yaklaştırmak için siyah artı işaretli yeşil düğmeye ve uzaklaştırmak için de eksi işaretli düğmeye hızla tıklayın; bitişik haritalar için yeşil okları kullanın.


METAR-TAF: